Time,TemperatureF,DewpointF,PressureIn,WindDirection,WindDirectionDegrees,WindSpeedMPH,WindSpeedGustMPH,Humidity,HourlyPrecipIn,Conditions,Clouds,dailyrainin,SolarRadiationWatts/m^2,SoftwareType,DateUTC
2013-05-07 00:05:00,54.8,49.4,29.84,SW,228,3.0,5.0,82,0.00,,,0.00,0,Wunderground v.1.15,2013-05-07 07:05:00,
2013-05-07 00:11:00,54.5,49.1,29.84,SW,228,3.0,3.0,82,0.00,,,0.00,0,Wunderground v.1.15,2013-05-07 07:11:00,
2013-05-07 00:17:00,54.2,49.1,29.84,SW,228,3.0,5.0,83,0.00,,,0.00,0,Wunderground v.1.15,2013-05-07 07:17:00,
2013-05-07 00:22:00,54.1,49.1,29.84,SW,228,2.0,3.0,83,0.00,,,0.00,0,Wunderground v.1.15,2013-05-07 07:22:00,
2013-05-07 00:28:00,53.7,49.0,29.85,SW,228,5.0,5.0,84,0.00,,,0.00,0,Wunderground v.1.15,2013-05-07 07:28:00,
2013-05-07 00:34:00,53.5,48.8,29.85,SW,232,4.0,5.0,84,0.00,,,0.00,0,Wunderground v.1.15,2013-05-07 07:34:00,
2013-05-07 00:39:00,53.4,49.0,29.85,SW,216,2.0,5.0,85,0.00,,,0.00,0,Wunderground v.1.15,2013-05-07 07:39:00,
2013-05-07 00:45:00,53.2,48.8,29.85,SW,218,6.0,6.0,85,0.00,,,0.00,0,Wunderground v.1.15,2013-05-07 07:45:00,
2013-05-07 00:51:00,53.0,48.6,29.85,SW,220,3.0,4.0,85,0.00,,,0.00,0,Wunderground v.1.15,2013-05-07 07:51:00,
2013-05-07 00:57:00,53.0,48.6,29.85,SW,220,3.0,4.0,85,0.00,,,0.00,0,Wunderground v.1.15,2013-05-07 07:57:00,
2013-05-07 01:03:00,52.7,48.3,29.86,SW,222,4.0,6.0,85,0.00,,,0.00,0,Wunderground v.1.15,2013-05-07 08:03:00,
2013-05-07 01:08:00,52.4,48.3,29.86,SW,222,6.0,6.0,86,0.00,,,0.00,0,Wunderground v.1.15,2013-05-07 08:08:00,
2013-05-07 01:14:00,52.0,47.9,29.86,SW,222,6.0,6.0,86,0.00,,,0.00,0,Wunderground v.1.15,2013-05-07 08:14:00,
2013-05-07 01:20:00,51.9,47.8,29.86,SW,222,4.0,4.0,86,0.00,,,0.00,0,Wunderground v.1.15,2013-05-07 08:20:00,
2013-05-07 01:26:00,51.8,47.7,29.86,SW,222,2.0,4.0,86,0.00,,,0.00,0,Wunderground v.1.15,2013-05-07 08:26:00,
2013-05-07 01:32:00,51.5,47.5,29.87,SW,222,2.0,3.0,86,0.00,,,0.00,0,Wunderground v.1.15,2013-05-07 08:32:00,
2013-05-07 01:38:00,51.0,47.3,29.87,SW,222,3.0,3.0,87,0.00,,,0.00,0,Wunderground v.1.15,2013-05-07 08:38:00,
2013-05-07 01:44:00,50.5,46.8,29.87,SW,222,2.0,3.0,87,0.00,,,0.00,0,Wunderground v.1.15,2013-05-07 08:44:00,
2013-05-07 01:50:00,50.1,46.4,29.88,SW,222,4.0,4.0,87,0.00,,,0.00,0,Wunderground v.1.15,2013-05-07 08:50:00,
2013-05-07 01:55:00,50.1,46.4,29.88,SW,222,2.0,5.0,87,0.00,,,0.00,0,Wunderground v.1.15,2013-05-07 08:55:00,
2013-05-07 02:00:00,50.1,46.4,29.88,SW,222,3.0,3.0,87,0.00,,,0.00,0,Wunderground v.1.15,2013-05-07 09:00:00,
2013-05-07 02:05:00,49.9,46.2,29.88,SW,222,4.0,4.0,87,0.00,,,0.00,0,Wunderground v.1.15,2013-05-07 09:05:00,
2013-05-07 02:10:00,49.6,45.9,29.88,SW,222,3.0,5.0,87,0.00,,,0.00,0,Wunderground v.1.15,2013-05-07 09:10:00,
2013-05-07 02:15:00,49.4,45.7,29.88,SW,222,4.0,5.0,87,0.00,,,0.00,0,Wunderground v.1.15,2013-05-07 09:15:00,
2013-05-07 02:20:00,49.3,45.6,29.88,SSW,194,4.0,5.0,87,0.00,,,0.00,0,Wunderground v.1.15,2013-05-07 09:20:00,
2013-05-07 02:25:00,49.2,45.5,29.88,SSW,194,4.0,7.0,87,0.00,,,0.00,0,Wunderground v.1.15,2013-05-07 09:25:00,
2013-05-07 02:30:00,49.1,45.4,29.89,SSW,194,3.0,4.0,87,0.00,,,0.00,0,Wunderground v.1.15,2013-05-07 09:30:00,
2013-05-07 02:35:00,49.2,45.5,29.89,SSW,194,3.0,4.0,87,0.00,,,0.00,0,Wunderground v.1.15,2013-05-07 09:35:00,
2013-05-07 02:40:00,49.3,45.3,29.89,SSW,194,2.0,3.0,86,0.00,,,0.00,0,Wunderground v.1.15,2013-05-07 09:40:00,
2013-05-07 02:45:00,49.4,45.4,29.89,SSW,194,2.0,3.0,86,0.00,,,0.00,0,Wunderground v.1.15,2013-05-07 09:45:00,
2013-05-07 02:50:00,49.2,45.5,29.90,SSW,194,4.0,4.0,87,0.00,,,0.00,0,Wunderground v.1.15,2013-05-07 09:50:00,
2013-05-07 02:55:00,49.1,45.1,29.90,SSW,194,2.0,4.0,86,0.00,,,0.00,0,Wunderground v.1.15,2013-05-07 09:55:00,
2013-05-07 03:00:00,49.3,45.3,29.90,SSW,194,3.0,3.0,86,0.00,,,0.00,0,Wunderground v.1.15,2013-05-07 10:00:00,
2013-05-07 03:05:00,49.5,45.5,29.90,SSW,194,2.0,3.0,86,0.00,,,0.00,0,Wunderground v.1.15,2013-05-07 10:05:00,
2013-05-07 03:10:00,49.3,45.3,29.91,SSW,194,1.0,2.0,86,0.00,,,0.00,0,Wunderground v.1.15,2013-05-07 10:10:00,
2013-05-07 03:15:00,49.2,45.2,29.91,SSW,193,1.0,3.0,86,0.00,,,0.00,0,Wunderground v.1.15,2013-05-07 10:15:00,
2013-05-07 03:20:00,49.4,45.4,29.91,SSW,193,2.0,2.0,86,0.00,,,0.00,0,Wunderground v.1.15,2013-05-07 10:20:00,
2013-05-07 03:25:00,49.5,45.5,29.91,South,190,2.0,4.0,86,0.00,,,0.00,0,Wunderground v.1.15,2013-05-07 10:25:00,
2013-05-07 03:30:00,49.6,45.9,29.91,South,191,2.0,3.0,87,0.00,,,0.00,0,Wunderground v.1.15,2013-05-07 10:30:00,
2013-05-07 03:35:00,49.7,45.7,29.91,South,191,2.0,3.0,86,0.00,,,0.00,0,Wunderground v.1.15,2013-05-07 10:35:00,
2013-05-07 03:40:00,49.8,46.1,29.91,South,190,1.0,2.0,87,0.00,,,0.00,0,Wunderground v.1.15,2013-05-07 10:40:00,
2013-05-07 03:45:00,49.7,46.0,29.91,South,190,0.0,3.0,87,0.00,,,0.00,0,Wunderground v.1.15,2013-05-07 10:45:00,
2013-05-07 03:50:00,49.6,45.9,29.92,South,190,0.0,1.0,87,0.00,,,0.00,0,Wunderground v.1.15,2013-05-07 10:50:00,
2013-05-07 03:55:00,49.1,45.4,29.92,South,190,0.0,1.0,87,0.00,,,0.00,0,Wunderground v.1.15,2013-05-07 10:55:00,
2013-05-07 04:00:00,48.1,44.4,29.92,South,190,2.0,3.0,87,0.00,,,0.00,0,Wunderground v.1.15,2013-05-07 11:00:00,
2013-05-07 04:05:00,47.5,43.8,29.92,South,190,3.0,4.0,87,0.00,,,0.00,0,Wunderground v.1.15,2013-05-07 11:05:00,
2013-05-07 04:10:00,46.9,43.2,29.92,South,190,2.0,3.0,87,0.00,,,0.00,0,Wunderground v.1.15,2013-05-07 11:10:00,
2013-05-07 04:15:00,46.9,42.9,29.92,South,190,3.0,4.0,86,0.00,,,0.00,0,Wunderground v.1.15,2013-05-07 11:15:00,
2013-05-07 04:20:00,47.2,43.2,29.92,South,190,3.0,3.0,86,0.00,,,0.00,0,Wunderground v.1.15,2013-05-07 11:20:00,
2013-05-07 04:25:00,47.5,43.5,29.92,South,190,3.0,4.0,86,0.00,,,0.00,0,Wunderground v.1.15,2013-05-07 11:25:00,
2013-05-07 04:30:00,47.9,43.9,29.92,South,190,1.0,3.0,86,0.00,,,0.00,0,Wunderground v.1.15,2013-05-07 11:30:00,
2013-05-07 04:35:00,48.3,44.0,29.92,South,190,1.0,3.0,85,0.00,,,0.00,0,Wunderground v.1.15,2013-05-07 11:35:00,
2013-05-07 04:40:00,48.8,44.8,29.92,South,190,2.0,3.0,86,0.00,,,0.00,0,Wunderground v.1.15,2013-05-07 11:40:00,
2013-05-07 04:45:00,49.0,45.0,29.92,South,190,0.0,3.0,86,0.00,,,0.00,0,Wunderground v.1.15,2013-05-07 11:45:00,
2013-05-07 04:50:00,49.1,45.1,29.92,South,190,0.0,1.0,86,0.00,,,0.00,0,Wunderground v.1.15,2013-05-07 11:50:00,
2013-05-07 04:55:00,49.3,45.3,29.92,South,190,1.0,1.0,86,0.00,,,0.00,0,Wunderground v.1.15,2013-05-07 11:55:00,
2013-05-07 05:01:00,49.4,45.4,29.92,South,190,2.0,2.0,86,0.00,,,0.00,0,Wunderground v.1.15,2013-05-07 12:01:00,
2013-05-07 05:06:00,49.5,45.8,29.92,South,190,0.0,2.0,87,0.00,,,0.00,0,Wunderground v.1.15,2013-05-07 12:06:00,
2013-05-07 05:11:00,49.5,45.8,29.93,South,190,1.0,2.0,87,0.00,,,0.00,0,Wunderground v.1.15,2013-05-07 12:11:00,
2013-05-07 05:16:00,49.5,45.5,29.93,South,190,1.0,2.0,86,0.00,,,0.00,0,Wunderground v.1.15,2013-05-07 12:16:00,
2013-05-07 05:21:00,49.8,46.1,29.92,South,190,1.0,2.0,87,0.00,,,0.00,0,Wunderground v.1.15,2013-05-07 12:21:00,
2013-05-07 05:26:00,49.9,46.2,29.92,South,190,3.0,3.0,87,0.00,,,0.00,0,Wunderground v.1.15,2013-05-07 12:26:00,
2013-05-07 05:31:00,49.9,46.2,29.93,South,190,0.0,2.0,87,0.00,,,0.00,0,Wunderground v.1.15,2013-05-07 12:31:00,
2013-05-07 05:36:00,49.9,46.2,29.93,South,190,0.0,4.0,87,0.00,,,0.00,0,Wunderground v.1.15,2013-05-07 12:36:00,
2013-05-07 05:41:00,50.0,46.0,29.93,South,190,0.0,1.0,86,0.00,,,0.00,0,Wunderground v.1.15,2013-05-07 12:41:00,
2013-05-07 05:46:00,50.0,46.0,29.93,South,190,0.0,1.0,86,0.00,,,0.00,0,Wunderground v.1.15,2013-05-07 12:46:00,
2013-05-07 05:54:00,50.2,46.2,29.93,South,190,2.0,2.0,86,0.00,,,0.00,0,Wunderground v.1.15,2013-05-07 12:54:00,
2013-05-07 05:59:00,50.4,46.4,29.93,South,190,1.0,2.0,86,0.00,,,0.00,0,Wunderground v.1.15,2013-05-07 12:59:00,
2013-05-07 06:04:00,50.7,47.0,29.93,South,190,0.0,2.0,87,0.00,,,0.00,5,Wunderground v.1.15,2013-05-07 13:04:00,
2013-05-07 06:09:00,50.8,47.1,29.93,South,190,0.0,2.0,87,0.00,,,0.00,9,Wunderground v.1.15,2013-05-07 13:09:00,
2013-05-07 06:14:00,50.9,47.2,29.93,South,190,0.0,0.0,87,0.00,,,0.00,11,Wunderground v.1.15,2013-05-07 13:14:00,
2013-05-07 06:19:00,51.0,47.3,29.93,South,190,1.0,1.0,87,0.00,,,0.00,12,Wunderground v.1.15,2013-05-07 13:19:00,
2013-05-07 06:24:00,51.0,47.3,29.93,South,190,0.0,1.0,87,0.00,,,0.00,14,Wunderground v.1.15,2013-05-07 13:24:00,
2013-05-07 06:30:00,51.1,47.4,29.93,South,190,3.0,3.0,87,0.00,,,0.00,14,Wunderground v.1.15,2013-05-07 13:30:00,
2013-05-07 06:34:00,51.1,47.4,29.93,South,190,3.0,3.0,87,0.00,,,0.00,14,Wunderground v.1.15,2013-05-07 13:34:00,
2013-05-07 06:39:00,51.1,47.4,29.94,South,190,2.0,4.0,87,0.00,,,0.00,18,Wunderground v.1.15,2013-05-07 13:39:00,
2013-05-07 06:44:00,51.1,47.4,29.94,South,190,2.0,3.0,87,0.00,,,0.00,21,Wunderground v.1.15,2013-05-07 13:44:00,
2013-05-07 06:49:00,51.1,47.4,29.94,South,190,2.0,3.0,87,0.00,,,0.00,26,Wunderground v.1.15,2013-05-07 13:49:00,
2013-05-07 06:55:00,51.2,47.5,29.94,South,190,0.0,2.0,87,0.00,,,0.00,32,Wunderground v.1.15,2013-05-07 13:55:00,
2013-05-07 06:59:00,51.3,47.6,29.94,South,190,0.0,2.0,87,0.00,,,0.00,35,Wunderground v.1.15,2013-05-07 13:59:00,
2013-05-07 07:04:00,51.4,47.7,29.94,South,190,0.0,1.0,87,0.00,,,0.00,40,Wunderground v.1.15,2013-05-07 14:04:00,
2013-05-07 07:09:00,51.5,47.8,29.94,South,190,0.0,1.0,87,0.00,,,0.00,58,Wunderground v.1.15,2013-05-07 14:09:00,
2013-05-07 07:15:00,51.7,48.0,29.95,South,190,0.0,3.0,87,0.00,,,0.00,60,Wunderground v.1.15,2013-05-07 14:15:00,
2013-05-07 07:20:00,51.8,48.1,29.95,SW,215,0.0,1.0,87,0.00,,,0.00,63,Wunderground v.1.15,2013-05-07 14:20:00,
2013-05-07 07:25:00,51.9,48.2,29.95,SW,215,1.0,2.0,87,0.00,,,0.00,70,Wunderground v.1.15,2013-05-07 14:25:00,
2013-05-07 07:30:00,52.1,48.3,29.95,SW,215,0.0,2.0,87,0.00,,,0.00,72,Wunderground v.1.15,2013-05-07 14:30:00,
2013-05-07 07:35:00,52.2,48.4,29.95,WSW,242,0.0,1.0,87,0.00,,,0.00,72,Wunderground v.1.15,2013-05-07 14:35:00,
2013-05-07 07:40:00,52.3,48.5,29.95,West,277,0.0,1.0,87,0.00,,,0.00,74,Wunderground v.1.15,2013-05-07 14:40:00,
2013-05-07 07:45:00,52.5,48.7,29.95,WNW,293,0.0,1.0,87,0.00,,,0.00,76,Wunderground v.1.15,2013-05-07 14:45:00,
2013-05-07 07:50:00,52.7,48.9,29.95,West,265,0.0,0.0,87,0.00,,,0.00,84,Wunderground v.1.15,2013-05-07 14:50:00,
2013-05-07 07:55:00,52.8,49.0,29.95,WSW,237,2.0,2.0,87,0.00,,,0.00,95,Wunderground v.1.15,2013-05-07 14:55:00,
2013-05-07 08:00:00,52.6,48.8,29.95,South,190,1.0,2.0,87,0.00,,,0.00,100,Wunderground v.1.15,2013-05-07 15:00:00,
2013-05-07 08:05:00,52.6,48.8,29.95,SW,215,1.0,2.0,87,0.00,,,0.00,104,Wunderground v.1.15,2013-05-07 15:05:00,
2013-05-07 08:10:00,52.8,49.0,29.95,SW,215,0.0,1.0,87,0.00,,,0.00,118,Wunderground v.1.15,2013-05-07 15:10:00,
2013-05-07 08:15:00,53.0,49.2,29.95,WSW,240,0.0,2.0,87,0.00,,,0.00,118,Wunderground v.1.15,2013-05-07 15:15:00,
2013-05-07 08:20:00,53.1,49.3,29.95,WSW,240,0.0,0.0,87,0.00,,,0.00,118,Wunderground v.1.15,2013-05-07 15:20:00,
2013-05-07 08:25:00,53.2,49.4,29.95,WSW,240,1.0,2.0,87,0.00,,,0.00,118,Wunderground v.1.15,2013-05-07 15:25:00,
2013-05-07 08:30:00,53.2,49.4,29.95,WSW,240,0.0,0.0,87,0.00,,,0.00,125,Wunderground v.1.15,2013-05-07 15:30:00,
2013-05-07 08:35:00,53.2,49.1,29.95,South,187,0.0,2.0,86,0.00,,,0.00,128,Wunderground v.1.15,2013-05-07 15:35:00,
2013-05-07 08:40:00,53.3,49.2,29.95,South,187,0.0,1.0,86,0.00,,,0.00,132,Wunderground v.1.15,2013-05-07 15:40:00,
2013-05-07 08:45:00,53.4,49.3,29.95,South,187,2.0,2.0,86,0.00,,,0.00,149,Wunderground v.1.15,2013-05-07 15:45:00,
2013-05-07 08:50:00,53.6,49.5,29.95,South,191,3.0,3.0,86,0.00,,,0.00,149,Wunderground v.1.15,2013-05-07 15:50:00,
2013-05-07 08:55:00,53.7,49.6,29.95,SSW,195,2.0,4.0,86,0.00,,,0.00,165,Wunderground v.1.15,2013-05-07 15:55:00,
2013-05-07 09:00:00,53.7,49.3,29.95,SSW,196,1.0,2.0,85,0.00,,,0.00,183,Wunderground v.1.15,2013-05-07 16:00:00,
2013-05-07 09:05:00,53.9,49.8,29.95,SSW,196,2.0,3.0,86,0.00,,,0.00,190,Wunderground v.1.15,2013-05-07 16:05:00,
2013-05-07 09:10:00,53.9,49.8,29.95,SSW,196,1.0,2.0,86,0.00,,,0.00,214,Wunderground v.1.15,2013-05-07 16:10:00,
2013-05-07 09:15:00,54.0,49.6,29.95,SSW,196,1.0,3.0,85,0.00,,,0.00,197,Wunderground v.1.15,2013-05-07 16:15:00,
2013-05-07 09:20:00,54.3,49.9,29.96,SW,219,0.0,2.0,85,0.00,,,0.00,178,Wunderground v.1.15,2013-05-07 16:20:00,
2013-05-07 09:25:00,54.4,50.0,29.95,SSW,196,3.0,5.0,85,0.00,,,0.00,186,Wunderground v.1.15,2013-05-07 16:25:00,
2013-05-07 09:30:00,54.4,49.7,29.95,SSW,197,3.0,3.0,84,0.00,,,0.00,172,Wunderground v.1.15,2013-05-07 16:30:00,
2013-05-07 09:35:00,54.6,49.9,29.95,SSW,197,3.0,3.0,84,0.00,,,0.00,183,Wunderground v.1.15,2013-05-07 16:35:00,
2013-05-07 09:40:00,54.6,50.2,29.95,SSW,197,1.0,2.0,85,0.00,,,0.00,223,Wunderground v.1.15,2013-05-07 16:40:00,
2013-05-07 09:45:00,54.6,49.9,29.95,SSW,197,0.0,3.0,84,0.00,,,0.00,255,Wunderground v.1.15,2013-05-07 16:45:00,
2013-05-07 09:50:00,54.9,50.2,29.95,SSW,198,2.0,3.0,84,0.00,,,0.00,297,Wunderground v.1.15,2013-05-07 16:50:00,
2013-05-07 09:55:00,55.1,50.4,29.95,SSW,198,2.0,5.0,84,0.00,,,0.00,308,Wunderground v.1.15,2013-05-07 16:55:00,
2013-05-07 10:00:00,55.4,50.3,29.95,SSW,198,3.0,3.0,83,0.00,,,0.00,323,Wunderground v.1.15,2013-05-07 17:00:00,
2013-05-07 10:05:00,55.5,50.4,29.95,SSW,198,3.0,3.0,83,0.00,,,0.00,345,Wunderground v.1.15,2013-05-07 17:05:00,
2013-05-07 10:10:00,56.0,50.3,29.95,SSW,195,3.0,3.0,81,0.00,,,0.00,353,Wunderground v.1.15,2013-05-07 17:10:00,
2013-05-07 10:15:00,56.2,50.4,29.95,South,180,3.0,6.0,81,0.00,,,0.00,431,Wunderground v.1.15,2013-05-07 17:15:00,
2013-05-07 10:20:00,56.2,50.4,29.95,SSW,195,0.0,3.0,81,0.00,,,0.00,476,Wunderground v.1.15,2013-05-07 17:20:00,
2013-05-07 10:25:00,56.8,51.0,29.95,SW,219,7.0,7.0,81,0.00,,,0.00,404,Wunderground v.1.15,2013-05-07 17:25:00,
2013-05-07 10:30:00,57.1,51.0,29.95,SW,219,3.0,3.0,80,0.00,,,0.00,436,Wunderground v.1.15,2013-05-07 17:30:00,
2013-05-07 10:35:00,57.4,50.6,29.95,SW,234,4.0,6.0,78,0.00,,,0.00,332,Wunderground v.1.15,2013-05-07 17:35:00,
2013-05-07 10:40:00,57.5,50.7,29.95,SW,217,0.0,4.0,78,0.00,,,0.00,680,Wunderground v.1.15,2013-05-07 17:40:00,
2013-05-07 10:45:00,57.6,51.5,29.95,SW,217,0.0,4.0,80,0.00,,,0.00,773,Wunderground v.1.15,2013-05-07 17:45:00,
2013-05-07 10:50:00,58.6,51.4,29.95,SSW,192,1.0,3.0,77,0.00,,,0.00,744,Wunderground v.1.15,2013-05-07 17:50:00,
2013-05-07 10:55:00,59.2,52.0,29.95,South,189,2.0,4.0,77,0.00,,,0.00,770,Wunderground v.1.15,2013-05-07 17:55:00,
2013-05-07 11:00:00,59.7,52.8,29.94,South,190,6.0,6.0,78,0.00,,,0.00,758,Wunderground v.1.15,2013-05-07 18:00:00,
2013-05-07 11:05:00,59.7,51.4,29.94,WNW,294,6.0,6.0,74,0.00,,,0.00,768,Wunderground v.1.15,2013-05-07 18:05:00,
2013-05-07 11:10:00,60.1,52.1,29.94,SSW,213,4.0,5.0,75,0.00,,,0.00,777,Wunderground v.1.15,2013-05-07 18:10:00,
2013-05-07 11:15:00,61.0,52.7,29.94,South,180,5.0,12.0,74,0.00,,,0.00,759,Wunderground v.1.15,2013-05-07 18:15:00,
2013-05-07 11:20:00,60.9,52.6,29.94,SSE,168,2.0,4.0,74,0.00,,,0.00,758,Wunderground v.1.15,2013-05-07 18:20:00,
2013-05-07 11:25:00,61.3,53.7,29.94,SSE,162,4.0,6.0,76,0.00,,,0.00,761,Wunderground v.1.15,2013-05-07 18:25:00,
2013-05-07 11:30:00,61.2,52.8,29.94,ESE,111,4.0,6.0,74,0.00,,,0.00,768,Wunderground v.1.15,2013-05-07 18:30:00,
2013-05-07 11:35:00,61.6,52.9,29.94,ENE,77,0.0,6.0,73,0.00,,,0.00,777,Wunderground v.1.15,2013-05-07 18:35:00,
2013-05-07 11:40:00,62.9,54.5,29.93,ESE,117,4.0,4.0,74,0.00,,,0.00,779,Wunderground v.1.15,2013-05-07 18:40:00,
2013-05-07 11:45:00,62.5,53.0,29.94,SW,225,1.0,6.0,71,0.00,,,0.00,795,Wunderground v.1.15,2013-05-07 18:45:00,
2013-05-07 11:50:00,62.7,52.8,29.94,SW,222,0.0,2.0,70,0.00,,,0.00,798,Wunderground v.1.15,2013-05-07 18:50:00,
2013-05-07 11:55:00,63.5,53.1,29.94,SSW,205,6.0,7.0,69,0.00,,,0.00,803,Wunderground v.1.15,2013-05-07 18:55:00,
2013-05-07 12:00:00,63.8,54.2,29.93,SSW,196,10.0,10.0,71,0.00,,,0.00,789,Wunderground v.1.15,2013-05-07 19:00:00,
2013-05-07 12:05:00,63.8,53.0,29.93,South,182,1.0,10.0,68,0.00,,,0.00,812,Wunderground v.1.15,2013-05-07 19:05:00,
2013-05-07 12:10:00,64.4,53.2,29.93,WSW,240,6.0,8.0,67,0.00,,,0.00,819,Wunderground v.1.15,2013-05-07 19:10:00,
2013-05-07 12:15:00,64.3,53.1,29.93,WSW,248,5.0,10.0,67,0.00,,,0.00,817,Wunderground v.1.15,2013-05-07 19:15:00,
2013-05-07 12:20:00,64.7,53.1,29.93,SSW,207,5.0,6.0,66,0.00,,,0.00,823,Wunderground v.1.15,2013-05-07 19:20:00,
2013-05-07 12:25:00,64.7,53.5,29.93,SSE,161,1.0,10.0,67,0.00,,,0.00,824,Wunderground v.1.15,2013-05-07 19:25:00,
2013-05-07 12:30:00,64.8,53.6,29.93,SSE,163,7.0,7.0,67,0.00,,,0.00,830,Wunderground v.1.15,2013-05-07 19:30:00,
2013-05-07 12:35:00,65.4,53.7,29.93,SSW,207,3.0,7.0,66,0.00,,,0.00,837,Wunderground v.1.15,2013-05-07 19:35:00,
2013-05-07 12:40:00,65.7,52.3,29.93,West,265,8.0,8.0,62,0.00,,,0.00,842,Wunderground v.1.15,2013-05-07 19:40:00,
2013-05-07 12:45:00,65.7,52.8,29.92,South,191,4.0,8.0,63,0.00,,,0.00,842,Wunderground v.1.15,2013-05-07 19:45:00,
2013-05-07 12:50:00,66.0,53.0,29.93,West,274,6.0,8.0,63,0.00,,,0.00,844,Wunderground v.1.15,2013-05-07 19:50:00,
2013-05-07 12:55:00,66.4,54.7,29.92,SW,232,5.0,11.0,66,0.00,,,0.00,846,Wunderground v.1.15,2013-05-07 19:55:00,
2013-05-07 13:01:00,67.2,53.7,29.92,SSW,198,5.0,10.0,62,0.00,,,0.00,844,Wunderground v.1.15,2013-05-07 20:01:00,
2013-05-07 13:06:00,67.2,54.2,29.92,SSE,164,2.0,10.0,63,0.00,,,0.00,846,Wunderground v.1.15,2013-05-07 20:06:00,
2013-05-07 13:11:00,67.1,53.6,29.92,SSW,194,8.0,9.0,62,0.00,,,0.00,849,Wunderground v.1.15,2013-05-07 20:11:00,
2013-05-07 13:16:00,67.2,55.0,29.92,South,172,6.0,10.0,65,0.00,,,0.00,847,Wunderground v.1.15,2013-05-07 20:16:00,
2013-05-07 13:21:00,67.5,54.0,29.92,SSW,211,7.0,9.0,62,0.00,,,0.00,847,Wunderground v.1.15,2013-05-07 20:21:00,
2013-05-07 13:26:00,68.0,53.1,29.92,SSE,161,2.0,9.0,59,0.00,,,0.00,846,Wunderground v.1.15,2013-05-07 20:26:00,
2013-05-07 13:31:00,68.3,53.9,29.92,WNW,286,9.0,9.0,60,0.00,,,0.00,847,Wunderground v.1.15,2013-05-07 20:31:00,
2013-05-07 13:36:00,68.5,53.1,29.92,South,173,6.0,9.0,58,0.00,,,0.00,844,Wunderground v.1.15,2013-05-07 20:36:00,
2013-05-07 13:41:00,68.5,55.0,29.91,SSW,192,4.0,5.0,62,0.00,,,0.00,840,Wunderground v.1.15,2013-05-07 20:41:00,
2013-05-07 13:46:00,68.5,54.1,29.92,SSW,202,3.0,7.0,60,0.00,,,0.00,844,Wunderground v.1.15,2013-05-07 20:46:00,
2013-05-07 13:51:00,69.3,53.4,29.92,SSW,204,3.0,6.0,57,0.00,,,0.00,840,Wunderground v.1.15,2013-05-07 20:51:00,
2013-05-07 13:56:00,69.2,54.3,29.92,SE,145,4.0,9.0,59,0.00,,,0.00,838,Wunderground v.1.15,2013-05-07 20:56:00,
2013-05-07 14:01:00,69.4,55.8,29.92,South,185,5.0,7.0,62,0.00,,,0.00,835,Wunderground v.1.15,2013-05-07 21:01:00,
2013-05-07 14:06:00,69.8,54.8,29.91,SW,216,0.0,8.0,59,0.00,,,0.00,831,Wunderground v.1.15,2013-05-07 21:06:00,
2013-05-07 14:11:00,69.8,55.7,29.92,SE,136,1.0,5.0,61,0.00,,,0.00,828,Wunderground v.1.15,2013-05-07 21:11:00,
2013-05-07 14:16:00,70.3,54.8,29.91,NNW,329,6.0,12.0,58,0.00,,,0.00,826,Wunderground v.1.15,2013-05-07 21:16:00,
2013-05-07 14:21:00,70.0,55.0,29.92,WNW,288,6.0,6.0,59,0.00,,,0.00,817,Wunderground v.1.15,2013-05-07 21:21:00,
2013-05-07 14:26:00,70.1,55.1,29.92,WSW,237,3.0,6.0,59,0.00,,,0.00,814,Wunderground v.1.15,2013-05-07 21:26:00,
2013-05-07 14:31:00,70.1,55.1,29.91,WSW,256,7.0,8.0,59,0.00,,,0.00,807,Wunderground v.1.15,2013-05-07 21:31:00,
2013-05-07 14:36:00,69.8,54.4,29.91,NW,309,0.0,12.0,58,0.00,,,0.00,802,Wunderground v.1.15,2013-05-07 21:36:00,
2013-05-07 14:41:00,70.5,55.5,29.91,West,269,7.0,8.0,59,0.00,,,0.00,795,Wunderground v.1.15,2013-05-07 21:41:00,
2013-05-07 14:46:00,70.6,55.1,29.91,West,265,5.0,9.0,58,0.00,,,0.00,791,Wunderground v.1.15,2013-05-07 21:46:00,
2013-05-07 14:51:00,70.8,54.8,29.92,NW,305,9.0,9.0,57,0.00,,,0.00,786,Wunderground v.1.15,2013-05-07 21:51:00,
2013-05-07 14:56:00,70.6,55.1,29.91,NW,319,7.0,13.0,58,0.00,,,0.00,779,Wunderground v.1.15,2013-05-07 21:56:00,
2013-05-07 15:01:00,70.6,55.6,29.91,East,90,1.0,5.0,59,0.00,,,0.00,770,Wunderground v.1.15,2013-05-07 22:01:00,
2013-05-07 15:06:00,71.3,56.7,29.91,NNE,27,2.0,8.0,60,0.00,,,0.00,763,Wunderground v.1.15,2013-05-07 22:06:00,
2013-05-07 15:11:00,71.4,55.9,29.91,NW,309,8.0,9.0,58,0.00,,,0.00,756,Wunderground v.1.15,2013-05-07 22:11:00,
2013-05-07 15:16:00,70.9,54.9,29.90,WNW,290,1.0,9.0,57,0.00,,,0.00,747,Wunderground v.1.15,2013-05-07 22:16:00,
2013-05-07 15:21:00,71.6,55.6,29.91,WNW,284,8.0,12.0,57,0.00,,,0.00,744,Wunderground v.1.15,2013-05-07 22:21:00,
2013-05-07 15:26:00,71.9,55.3,29.91,NW,305,6.0,14.0,56,0.00,,,0.00,735,Wunderground v.1.15,2013-05-07 22:26:00,
2013-05-07 15:31:00,71.6,55.1,29.91,WNW,300,7.0,10.0,56,0.00,,,0.00,722,Wunderground v.1.15,2013-05-07 22:31:00,
2013-05-07 15:36:00,71.5,55.9,29.90,NNW,342,2.0,12.0,58,0.00,,,0.00,714,Wunderground v.1.15,2013-05-07 22:36:00,
2013-05-07 15:41:00,71.6,56.0,29.91,North,10,8.0,8.0,58,0.00,,,0.00,703,Wunderground v.1.15,2013-05-07 22:41:00,
2013-05-07 15:46:00,71.8,56.2,29.90,WNW,302,6.0,8.0,58,0.00,,,0.00,696,Wunderground v.1.15,2013-05-07 22:46:00,
2013-05-07 15:51:00,71.9,54.9,29.90,WNW,303,8.0,10.0,55,0.00,,,0.00,686,Wunderground v.1.15,2013-05-07 22:51:00,
2013-05-07 15:56:00,71.8,54.8,29.90,WNW,292,0.0,12.0,55,0.00,,,0.00,673,Wunderground v.1.15,2013-05-07 22:56:00,
2013-05-07 16:01:00,72.2,55.1,29.90,West,279,13.0,13.0,55,0.00,,,0.00,666,Wunderground v.1.15,2013-05-07 23:01:00,
2013-05-07 16:06:00,72.3,54.7,29.90,West,279,1.0,13.0,54,0.00,,,0.00,656,Wunderground v.1.15,2013-05-07 23:06:00,
2013-05-07 16:11:00,72.4,55.3,29.90,NW,321,4.0,10.0,55,0.00,,,0.00,645,Wunderground v.1.15,2013-05-07 23:11:00,
2013-05-07 16:16:00,72.5,55.4,29.90,North,360,4.0,10.0,55,0.00,,,0.00,635,Wunderground v.1.15,2013-05-07 23:16:00,
2013-05-07 16:21:00,72.3,55.7,29.90,WNW,300,5.0,8.0,56,0.00,,,0.00,621,Wunderground v.1.15,2013-05-07 23:21:00,
2013-05-07 16:26:00,72.2,55.1,29.90,North,5,7.0,11.0,55,0.00,,,0.00,608,Wunderground v.1.15,2013-05-07 23:26:00,
2013-05-07 16:31:00,72.3,54.7,29.90,NNW,342,6.0,9.0,54,0.00,,,0.00,598,Wunderground v.1.15,2013-05-07 23:31:00,
2013-05-07 16:36:00,72.5,55.4,29.90,NNW,329,7.0,9.0,55,0.00,,,0.00,585,Wunderground v.1.15,2013-05-07 23:36:00,
2013-05-07 16:41:00,72.5,54.9,29.90,North,360,6.0,9.0,54,0.00,,,0.00,571,Wunderground v.1.15,2013-05-07 23:41:00,
2013-05-07 16:46:00,72.3,54.7,29.90,NW,324,6.0,9.0,54,0.00,,,0.00,559,Wunderground v.1.15,2013-05-07 23:46:00,
2013-05-07 16:51:00,72.1,55.5,29.90,NW,306,4.0,6.0,56,0.00,,,0.00,547,Wunderground v.1.15,2013-05-07 23:51:00,
2013-05-07 16:56:00,72.4,55.3,29.90,NW,306,8.0,14.0,55,0.00,,,0.00,534,Wunderground v.1.15,2013-05-07 23:56:00,
2013-05-07 17:01:00,71.7,54.7,29.90,NW,309,7.0,8.0,55,0.00,,,0.00,522,Wunderground v.1.15,2013-05-08 00:01:00,
2013-05-07 17:06:00,71.9,54.9,29.90,NNW,331,7.0,10.0,55,0.00,,,0.00,508,Wunderground v.1.15,2013-05-08 00:06:00,
2013-05-07 17:11:00,71.8,55.3,29.90,NW,308,8.0,10.0,56,0.00,,,0.00,497,Wunderground v.1.15,2013-05-08 00:11:00,
2013-05-07 17:16:00,71.7,55.2,29.90,NNE,20,12.0,13.0,56,0.00,,,0.00,485,Wunderground v.1.15,2013-05-08 00:16:00,
2013-05-07 17:21:00,71.7,55.2,29.90,NNE,30,6.0,9.0,56,0.00,,,0.00,471,Wunderground v.1.15,2013-05-08 00:21:00,
2013-05-07 17:26:00,71.4,54.9,29.90,WNW,290,4.0,11.0,56,0.00,,,0.00,459,Wunderground v.1.15,2013-05-08 00:26:00,
2013-05-07 17:31:00,71.6,54.6,29.90,North,5,7.0,13.0,55,0.00,,,0.00,443,Wunderground v.1.15,2013-05-08 00:31:00,
2013-05-07 17:36:00,71.2,54.7,29.90,North,349,7.0,13.0,56,0.00,,,0.00,427,Wunderground v.1.15,2013-05-08 00:36:00,
2013-05-07 17:41:00,71.0,55.0,29.90,NNW,348,6.0,9.0,57,0.00,,,0.00,413,Wunderground v.1.15,2013-05-08 00:41:00,
2013-05-07 17:46:00,70.7,54.2,29.90,NW,317,5.0,13.0,56,0.00,,,0.00,397,Wunderground v.1.15,2013-05-08 00:46:00,
2013-05-07 17:54:00,70.6,54.1,29.90,NNW,344,8.0,8.0,56,0.00,,,0.00,376,Wunderground v.1.15,2013-05-08 00:54:00,
2013-05-07 17:59:00,70.8,54.3,29.90,NW,325,8.0,11.0,56,0.00,,,0.00,360,Wunderground v.1.15,2013-05-08 00:59:00,
2013-05-07 18:04:00,70.5,54.5,29.90,WNW,298,6.0,9.0,57,0.00,,,0.00,346,Wunderground v.1.15,2013-05-08 01:04:00,
2013-05-07 18:09:00,70.4,54.0,29.90,North,5,8.0,11.0,56,0.00,,,0.00,334,Wunderground v.1.15,2013-05-08 01:09:00,
2013-05-07 18:14:00,69.9,54.0,29.91,NW,315,10.0,13.0,57,0.00,,,0.00,318,Wunderground v.1.15,2013-05-08 01:14:00,
2013-05-07 18:19:00,69.5,53.6,29.91,North,355,6.0,13.0,57,0.00,,,0.00,302,Wunderground v.1.15,2013-05-08 01:19:00,
2013-05-07 18:24:00,69.4,54.0,29.90,NNW,342,5.0,10.0,58,0.00,,,0.00,288,Wunderground v.1.15,2013-05-08 01:24:00,
2013-05-07 18:29:00,69.4,54.0,29.90,NW,317,6.0,14.0,58,0.00,,,0.00,272,Wunderground v.1.15,2013-05-08 01:29:00,
2013-05-07 18:34:00,69.5,53.6,29.90,WNW,290,9.0,15.0,57,0.00,,,0.00,258,Wunderground v.1.15,2013-05-08 01:34:00,
2013-05-07 18:39:00,69.4,53.5,29.90,NW,323,12.0,15.0,57,0.00,,,0.00,244,Wunderground v.1.15,2013-05-08 01:39:00,
2013-05-07 18:44:00,69.0,53.6,29.91,North,360,7.0,15.0,58,0.00,,,0.00,232,Wunderground v.1.15,2013-05-08 01:44:00,
2013-05-07 18:49:00,68.7,53.3,29.91,NW,310,7.0,16.0,58,0.00,,,0.00,216,Wunderground v.1.15,2013-05-08 01:49:00,
2013-05-07 18:54:00,68.2,53.3,29.91,NW,315,6.0,15.0,59,0.00,,,0.00,202,Wunderground v.1.15,2013-05-08 01:54:00,
2013-05-07 18:59:00,68.0,53.6,29.91,NNW,335,10.0,15.0,60,0.00,,,0.00,188,Wunderground v.1.15,2013-05-08 01:59:00,
2013-05-07 19:04:00,67.2,53.3,29.91,NW,307,12.0,12.0,61,0.00,,,0.00,176,Wunderground v.1.15,2013-05-08 02:04:00,
2013-05-07 19:09:00,66.9,53.0,29.91,NNW,342,9.0,13.0,61,0.00,,,0.00,160,Wunderground v.1.15,2013-05-08 02:09:00,
2013-05-07 19:14:00,66.5,53.1,29.92,North,350,9.0,14.0,62,0.00,,,0.00,149,Wunderground v.1.15,2013-05-08 02:14:00,
2013-05-07 19:20:00,66.2,53.2,29.92,NNW,337,11.0,11.0,63,0.00,,,0.00,135,Wunderground v.1.15,2013-05-08 02:20:00,
2013-05-07 19:25:00,65.9,52.9,29.92,NW,315,9.0,14.0,63,0.00,,,0.00,123,Wunderground v.1.15,2013-05-08 02:25:00,
2013-05-07 19:30:00,65.5,52.6,29.92,NNW,329,8.0,9.0,63,0.00,,,0.00,111,Wunderground v.1.15,2013-05-08 02:30:00,
2013-05-07 19:35:00,65.4,52.5,29.92,NNW,332,8.0,13.0,63,0.00,,,0.00,98,Wunderground v.1.15,2013-05-08 02:35:00,
2013-05-07 19:40:00,64.9,52.4,29.92,NNW,331,11.0,11.0,64,0.00,,,0.00,86,Wunderground v.1.15,2013-05-08 02:40:00,
2013-05-07 19:45:00,64.6,52.6,29.92,NNW,347,8.0,11.0,65,0.00,,,0.00,76,Wunderground v.1.15,2013-05-08 02:45:00,
2013-05-07 19:50:00,64.4,52.4,29.92,North,355,7.0,7.0,65,0.00,,,0.00,63,Wunderground v.1.15,2013-05-08 02:50:00,
2013-05-07 19:55:00,64.0,52.8,29.92,NW,323,9.0,12.0,67,0.00,,,0.00,54,Wunderground v.1.15,2013-05-08 02:55:00,
2013-05-07 20:00:00,63.6,52.4,29.92,NW,320,8.0,8.0,67,0.00,,,0.00,44,Wunderground v.1.15,2013-05-08 03:00:00,
2013-05-07 20:05:00,63.2,52.5,29.93,NNW,340,8.0,13.0,68,0.00,,,0.00,33,Wunderground v.1.15,2013-05-08 03:05:00,
2013-05-07 20:10:00,62.5,52.2,29.93,NW,313,6.0,13.0,69,0.00,,,0.00,25,Wunderground v.1.15,2013-05-08 03:10:00,
2013-05-07 20:15:00,62.2,51.9,29.93,NNW,337,5.0,10.0,69,0.00,,,0.00,16,Wunderground v.1.15,2013-05-08 03:15:00,
2013-05-07 20:20:00,61.8,51.9,29.93,NW,313,5.0,10.0,70,0.00,,,0.00,9,Wunderground v.1.15,2013-05-08 03:20:00,
2013-05-07 20:25:00,61.3,51.8,29.93,NW,313,4.0,9.0,71,0.00,,,0.00,7,Wunderground v.1.15,2013-05-08 03:25:00,
2013-05-07 20:30:00,61.0,51.9,29.93,NNW,343,5.0,9.0,72,0.00,,,0.00,5,Wunderground v.1.15,2013-05-08 03:30:00,
2013-05-07 20:35:00,60.6,51.5,29.94,North,355,6.0,9.0,72,0.00,,,0.00,0,Wunderground v.1.15,2013-05-08 03:35:00,
2013-05-07 20:40:00,60.2,51.5,29.94,NW,313,5.0,9.0,73,0.00,,,0.00,0,Wunderground v.1.15,2013-05-08 03:40:00,
2013-05-07 20:45:00,59.8,51.5,29.94,NNW,340,4.0,7.0,74,0.00,,,0.00,0,Wunderground v.1.15,2013-05-08 03:45:00,
2013-05-07 20:50:00,59.4,51.5,29.95,NNW,334,6.0,10.0,75,0.00,,,0.00,0,Wunderground v.1.15,2013-05-08 03:50:00,
2013-05-07 20:55:00,58.8,51.2,29.95,NNW,343,5.0,7.0,76,0.00,,,0.00,0,Wunderground v.1.15,2013-05-08 03:55:00,
2013-05-07 21:00:00,58.4,50.9,29.96,North,5,4.0,7.0,76,0.00,,,0.00,0,Wunderground v.1.15,2013-05-08 04:00:00,
2013-05-07 21:01:00,58.3,51.1,29.96,North,355,4.0,6.0,77,0.00,,,0.00,0,Wunderground v.1.15,2013-05-08 04:01:00,
2013-05-07 21:06:00,57.9,50.7,29.96,North,355,7.0,9.0,77,0.00,,,0.00,0,Wunderground v.1.15,2013-05-08 04:06:00,
2013-05-07 21:11:00,57.5,50.7,29.96,NNW,338,4.0,8.0,78,0.00,,,0.00,0,Wunderground v.1.15,2013-05-08 04:11:00,
2013-05-07 21:16:00,57.2,50.4,29.96,NW,313,7.0,8.0,78,0.00,,,0.00,0,Wunderground v.1.15,2013-05-08 04:16:00,
2013-05-07 21:21:00,57.0,50.5,29.96,NNW,327,1.0,4.0,79,0.00,,,0.00,0,Wunderground v.1.15,2013-05-08 04:21:00,
2013-05-07 21:26:00,56.7,50.3,29.96,NW,325,2.0,5.0,79,0.00,,,0.00,0,Wunderground v.1.15,2013-05-08 04:26:00,
2013-05-07 21:31:00,56.4,50.3,29.97,NW,325,4.0,4.0,80,0.00,,,0.00,0,Wunderground v.1.15,2013-05-08 04:31:00,
2013-05-07 21:36:00,56.1,50.0,29.97,NNW,343,5.0,7.0,80,0.00,,,0.00,0,Wunderground v.1.15,2013-05-08 04:36:00,
2013-05-07 21:41:00,55.9,49.8,29.97,NNW,333,4.0,5.0,80,0.00,,,0.00,0,Wunderground v.1.15,2013-05-08 04:41:00,
2013-05-07 21:46:00,55.8,50.1,29.98,NNW,333,2.0,5.0,81,0.00,,,0.00,0,Wunderground v.1.15,2013-05-08 04:46:00,
2013-05-07 21:51:00,55.4,49.7,29.98,NNW,333,4.0,5.0,81,0.00,,,0.00,0,Wunderground v.1.15,2013-05-08 04:51:00,
2013-05-07 21:56:00,55.2,49.5,29.98,NNW,333,2.0,5.0,81,0.00,,,0.00,0,Wunderground v.1.15,2013-05-08 04:56:00,
2013-05-07 22:01:00,54.9,49.5,29.98,NNW,333,2.0,5.0,82,0.00,,,0.00,0,Wunderground v.1.15,2013-05-08 05:01:00,
2013-05-07 22:06:00,54.6,49.2,29.98,NNW,333,5.0,5.0,82,0.00,,,0.00,0,Wunderground v.1.15,2013-05-08 05:06:00,
2013-05-07 22:11:00,54.3,49.2,29.98,NNW,333,2.0,5.0,83,0.00,,,0.00,0,Wunderground v.1.15,2013-05-08 05:11:00,
2013-05-07 22:16:00,54.2,49.1,29.99,NNW,333,5.0,5.0,83,0.00,,,0.00,0,Wunderground v.1.15,2013-05-08 05:16:00,
2013-05-07 22:21:00,54.1,49.1,29.98,North,355,4.0,5.0,83,0.00,,,0.00,0,Wunderground v.1.15,2013-05-08 05:21:00,
2013-05-07 22:26:00,54.0,49.0,29.99,NW,321,2.0,6.0,83,0.00,,,0.00,0,Wunderground v.1.15,2013-05-08 05:26:00,
2013-05-07 22:31:00,53.9,49.2,29.99,NNW,333,5.0,5.0,84,0.00,,,0.00,0,Wunderground v.1.15,2013-05-08 05:31:00,
2013-05-07 22:36:00,53.7,49.0,29.99,NNW,338,2.0,6.0,84,0.00,,,0.00,0,Wunderground v.1.15,2013-05-08 05:36:00,
2013-05-07 22:41:00,53.5,48.8,29.99,NNW,338,1.0,4.0,84,0.00,,,0.00,0,Wunderground v.1.15,2013-05-08 05:41:00,
2013-05-07 22:46:00,53.4,48.7,29.99,NNW,338,4.0,5.0,84,0.00,,,0.00,0,Wunderground v.1.15,2013-05-08 05:46:00,
2013-05-07 22:51:00,53.2,48.5,29.99,NNW,338,2.0,2.0,84,0.00,,,0.00,0,Wunderground v.1.15,2013-05-08 05:51:00,
2013-05-07 22:56:00,52.8,48.4,30.00,NNW,338,2.0,4.0,85,0.00,,,0.00,0,Wunderground v.1.15,2013-05-08 05:56:00,
2013-05-07 23:01:00,52.7,48.3,30.00,NNW,338,0.0,2.0,85,0.00,,,0.00,0,Wunderground v.1.15,2013-05-08 06:01:00,
2013-05-07 23:06:00,52.7,48.3,30.00,NNW,338,1.0,2.0,85,0.00,,,0.00,0,Wunderground v.1.15,2013-05-08 06:06:00,
2013-05-07 23:11:00,52.7,48.3,30.00,NNW,338,0.0,1.0,85,0.00,,,0.00,0,Wunderground v.1.15,2013-05-08 06:11:00,
2013-05-07 23:16:00,52.6,48.2,30.01,NNW,338,0.0,2.0,85,0.00,,,0.00,0,Wunderground v.1.15,2013-05-08 06:16:00,
2013-05-07 23:21:00,52.1,47.4,30.01,NNW,338,0.0,0.0,84,0.00,,,0.00,0,Wunderground v.1.15,2013-05-08 06:21:00,
2013-05-07 23:26:00,51.4,47.0,30.01,NNW,338,0.0,0.0,85,0.00,,,0.00,0,Wunderground v.1.15,2013-05-08 06:26:00,
2013-05-07 23:31:00,50.8,46.8,30.01,NNW,338,0.0,0.0,86,0.00,,,0.00,0,Wunderground v.1.15,2013-05-08 06:31:00,
2013-05-07 23:36:00,50.6,46.9,30.01,NNW,338,0.0,0.0,87,0.00,,,0.00,0,Wunderground v.1.15,2013-05-08 06:36:00,
2013-05-07 23:41:00,50.7,47.0,30.01,NNW,338,0.0,2.0,87,0.00,,,0.00,0,Wunderground v.1.15,2013-05-08 06:41:00,
2013-05-07 23:46:00,51.1,47.4,30.01,NNW,338,0.0,2.0,87,0.00,,,0.00,0,Wunderground v.1.15,2013-05-08 06:46:00,
2013-05-07 23:54:00,51.7,48.0,30.02,NNW,338,1.0,1.0,87,0.00,,,0.00,0,Wunderground v.1.15,2013-05-08 06:54:00,
2013-05-07 23:59:00,51.9,48.2,30.02,NNW,338,1.0,2.0,87,0.00,,,0.00,0,Wunderground v.1.15,2013-05-08 06:59:00,